createdAt,value
2023-03-02T00:00:51.619Z,0.14
2023-03-02T00:04:59.711Z,0.14
2023-03-02T00:09:04.777Z,0.15
2023-03-02T00:13:07.388Z,0.12
2023-03-02T00:17:10.507Z,0.15
2023-03-02T00:21:14.497Z,0.14
2023-03-02T00:25:18.069Z,0.18
2023-03-02T00:29:20.688Z,0.13
2023-03-02T00:33:23.296Z,0.13
2023-03-02T00:37:27.368Z,0.14
2023-03-02T00:41:30.013Z,0.14
2023-03-02T00:45:32.673Z,0.15
2023-03-02T00:49:36.526Z,0.12
2023-03-02T00:53:40.672Z,0.09
2023-03-02T00:57:43.298Z,0.09
2023-03-02T01:01:45.918Z,0.09
2023-03-02T01:05:48.593Z,0.05
2023-03-02T01:09:53.992Z,0.02
2023-03-02T01:13:56.618Z,-0.04
2023-03-02T01:17:59.931Z,-0.05
2023-03-02T01:22:03.169Z,-0.05
2023-03-02T01:26:07.393Z,-0.08
2023-03-02T01:30:11.394Z,-0.07
2023-03-02T01:34:14.187Z,-0.06
2023-03-02T01:38:16.821Z,-0.16
2023-03-02T01:42:20.800Z,-0.17
2023-03-02T01:46:26.176Z,-0.25
2023-03-02T01:50:28.893Z,-0.21
2023-03-02T01:54:31.564Z,-0.28
2023-03-02T01:58:38.100Z,-0.27
2023-03-02T02:02:41.971Z,-0.36
2023-03-02T02:06:49.346Z,-0.45
2023-03-02T02:10:53.908Z,-0.51
2023-03-02T02:15:00.762Z,-0.48
2023-03-02T02:19:04.863Z,-0.48
2023-03-02T02:23:19.985Z,-0.51
2023-03-02T02:27:29.912Z,-0.53
2023-03-02T02:31:37.549Z,-0.57
2023-03-02T02:35:41.419Z,-0.66
2023-03-02T02:39:48.943Z,-0.70
2023-03-02T02:43:53.127Z,-0.70
2023-03-02T02:47:56.979Z,-0.73
2023-03-02T02:52:00.300Z,-0.81
2023-03-02T02:56:03.988Z,-0.83
2023-03-02T03:00:19.536Z,-0.90
2023-03-02T03:04:26.802Z,-0.91
2023-03-02T03:08:53.165Z,-0.90
2023-03-02T03:12:56.689Z,-0.91
2023-03-02T03:17:01.093Z,-0.93
2023-03-02T03:21:03.900Z,-0.89
2023-03-02T03:25:07.310Z,-0.87
2023-03-02T03:29:10.034Z,-0.81
2023-03-02T03:33:14.060Z,-0.77
2023-03-02T03:37:19.969Z,-0.73
2023-03-02T03:41:22.768Z,-0.68
2023-03-02T03:45:25.391Z,-0.64
2023-03-02T03:49:29.980Z,-0.71
2023-03-02T03:53:32.740Z,-0.77
2023-03-02T03:57:35.427Z,-0.80
2023-03-02T04:01:40.069Z,-0.89
2023-03-02T04:05:44.211Z,-0.89
2023-03-02T04:09:46.861Z,-0.90
2023-03-02T04:13:49.880Z,-0.93
2023-03-02T04:17:52.902Z,-0.92
2023-03-02T04:21:58.451Z,-0.95
2023-03-02T04:26:05.313Z,-0.97
2023-03-02T04:30:10.004Z,-0.91
2023-03-02T04:34:12.635Z,-0.95
2023-03-02T04:38:16.672Z,-0.91
2023-03-02T04:42:20.079Z,-0.93
2023-03-02T04:46:26.358Z,-0.57
2023-03-02T04:50:29.015Z,-0.34
2023-03-02T04:54:33.259Z,-0.56
2023-03-02T04:58:35.879Z,-0.70
2023-03-02T05:02:38.543Z,-0.77
2023-03-02T05:06:41.182Z,-0.90
2023-03-02T05:10:45.186Z,-0.94
2023-03-02T05:14:47.804Z,-0.91
2023-03-02T05:18:50.485Z,-0.97
2023-03-02T05:22:53.059Z,-1.00
2023-03-02T05:26:57.024Z,-0.95
2023-03-02T05:30:59.874Z,-1.03
2023-03-02T05:35:02.600Z,-1.00
2023-03-02T05:39:06.089Z,-1.04
2023-03-02T05:43:11.834Z,-1.02
2023-03-02T05:47:14.519Z,-1.05
2023-03-02T05:51:18.263Z,-1.03
2023-03-02T05:55:21.829Z,-0.98
2023-03-02T05:59:25.993Z,-0.86
2023-03-02T06:03:29.356Z,-0.89
2023-03-02T06:07:32.131Z,-0.88
2023-03-02T06:11:34.777Z,-0.82
2023-03-02T06:15:40.541Z,-0.84
2023-03-02T06:19:43.288Z,-0.82
2023-03-02T06:23:46.092Z,-0.76
2023-03-02T06:27:51.068Z,-0.71
2023-03-02T06:31:55.106Z,-0.65
2023-03-02T06:35:58.242Z,-0.60
2023-03-02T06:40:01.304Z,-0.56
2023-03-02T06:44:03.910Z,-0.46
2023-03-02T06:48:09.236Z,-0.33
2023-03-02T06:52:13.657Z,-0.25
2023-03-02T06:56:16.280Z,-0.15
2023-03-02T07:00:25.997Z,0.01
2023-03-02T07:04:30.241Z,0.12
2023-03-02T07:08:32.866Z,0.25
2023-03-02T07:12:35.670Z,0.46
2023-03-02T07:16:39.249Z,0.63
2023-03-02T07:20:43.447Z,0.76
2023-03-02T07:24:46.080Z,1.02
2023-03-02T07:28:48.724Z,1.24
2023-03-02T07:32:51.798Z,1.43
2023-03-02T07:36:55.959Z,1.72
2023-03-02T07:40:58.640Z,1.95
2023-03-02T07:45:01.261Z,2.22
2023-03-02T07:49:04.264Z,2.42
2023-03-02T07:53:08.523Z,2.70
2023-03-02T07:57:11.187Z,2.88
2023-03-02T08:01:14.154Z,3.23
2023-03-02T08:05:17.106Z,3.40
2023-03-02T08:09:21.224Z,3.74
2023-03-02T08:13:23.858Z,3.94
2023-03-02T08:17:26.530Z,4.13
2023-03-02T08:21:30.132Z,4.34
2023-03-02T08:25:34.113Z,4.60
2023-03-02T08:29:36.749Z,4.65
2023-03-02T08:33:40.222Z,4.73
2023-03-02T08:37:42.855Z,4.88
2023-03-02T08:41:46.838Z,5.06
2023-03-02T08:45:52.762Z,5.38
2023-03-02T08:49:55.452Z,5.58
2023-03-02T08:53:58.102Z,5.55
2023-03-02T08:58:02.134Z,5.74
2023-03-02T09:02:04.844Z,6.07
2023-03-02T09:06:07.553Z,6.38
2023-03-02T09:10:11.349Z,6.62
2023-03-02T09:14:15.362Z,6.79
2023-03-02T09:18:18.158Z,6.94
2023-03-02T09:22:20.859Z,7.19
2023-03-02T09:26:23.505Z,7.46
2023-03-02T09:30:28.159Z,7.51
2023-03-02T09:34:30.841Z,7.85
2023-03-02T09:38:33.454Z,7.96
2023-03-02T09:42:53.145Z,8.09
2023-03-02T09:47:01.709Z,8.32
2023-03-02T09:51:17.308Z,8.68
2023-03-02T09:55:24.065Z,9.01
2023-03-02T09:59:30.455Z,9.12
2023-03-02T10:03:40.276Z,9.24
2023-03-02T10:07:43.293Z,9.35
2023-03-02T10:11:59.897Z,9.40
2023-03-02T10:16:16.795Z,9.57
2023-03-02T10:20:34.174Z,9.94
2023-03-02T10:24:41.591Z,9.89
2023-03-02T10:28:50.243Z,10.33
2023-03-02T10:32:54.107Z,10.23
2023-03-02T10:36:58.707Z,10.43
2023-03-02T10:41:04.576Z,10.72
2023-03-02T10:45:17.880Z,11.15
2023-03-02T10:49:29.475Z,11.20
2023-03-02T10:53:34.073Z,11.42
2023-03-02T10:57:39.833Z,11.61
2023-03-02T11:01:42.479Z,11.78
2023-03-02T11:05:45.440Z,11.63
2023-03-02T11:10:03.592Z,11.93
2023-03-02T11:14:14.850Z,12.21
2023-03-02T11:18:26.186Z,12.16
2023-03-02T11:22:36.871Z,12.43
2023-03-02T11:26:46.170Z,12.81
2023-03-02T11:30:52.517Z,12.81
2023-03-02T11:35:00.554Z,12.70
2023-03-02T11:39:09.136Z,13.16
2023-03-02T11:43:13.801Z,13.17
2023-03-02T11:47:18.571Z,13.34
2023-03-02T11:51:25.096Z,13.11
2023-03-02T11:55:29.828Z,13.20
2023-03-02T11:59:36.017Z,13.44
2023-03-02T12:03:41.537Z,13.35
2023-03-02T12:07:46.823Z,13.71
2023-03-02T12:11:58.099Z,13.68
2023-03-02T12:16:02.523Z,13.99
2023-03-02T12:20:23.529Z,14.13
2023-03-02T12:24:28.174Z,13.91
2023-03-02T12:28:34.069Z,14.07
2023-03-02T12:32:38.118Z,14.28
2023-03-02T12:36:44.625Z,14.34
2023-03-02T12:41:05.652Z,14.65
2023-03-02T12:45:21.622Z,14.89
2023-03-02T12:49:49.762Z,14.75
2023-03-02T12:54:03.526Z,15.23
2023-03-02T12:58:17.895Z,14.96
2023-03-02T13:02:22.177Z,14.47
2023-03-02T13:06:31.033Z,15.49
2023-03-02T13:10:37.439Z,15.78
2023-03-02T13:14:42.346Z,15.00
2023-03-02T13:18:45.682Z,15.10
2023-03-02T13:22:49.964Z,15.13
2023-03-02T13:26:57.504Z,15.01
2023-03-02T13:31:03.039Z,15.08
2023-03-02T13:35:18.070Z,15.47
2023-03-02T13:39:26.902Z,15.65
2023-03-02T13:43:40.122Z,14.94
2023-03-02T13:47:45.058Z,15.67
2023-03-02T13:51:48.745Z,15.30
2023-03-02T13:55:54.275Z,15.41
2023-03-02T13:59:57.096Z,15.34
2023-03-02T14:04:01.417Z,15.62
2023-03-02T14:08:06.842Z,15.17
2023-03-02T14:12:23.622Z,15.01
2023-03-02T14:16:26.648Z,15.47
2023-03-02T14:20:29.496Z,15.81
2023-03-02T14:24:32.161Z,15.43
2023-03-02T14:28:36.658Z,15.29
2023-03-02T14:32:39.377Z,15.71
2023-03-02T14:36:44.649Z,15.79
2023-03-02T14:40:47.491Z,15.52
2023-03-02T14:44:52.174Z,15.82
2023-03-02T14:48:55.061Z,15.60
2023-03-02T14:52:58.877Z,14.88
2023-03-02T14:57:02.023Z,15.11
2023-03-02T15:01:06.388Z,15.42
2023-03-02T15:05:10.273Z,14.99
2023-03-02T15:09:13.339Z,15.38
2023-03-02T15:13:15.957Z,15.21
2023-03-02T15:17:20.013Z,14.92
2023-03-02T15:21:25.552Z,14.67
2023-03-02T15:25:29.117Z,14.62
2023-03-02T15:29:31.750Z,14.52
2023-03-02T15:33:35.748Z,14.40
2023-03-02T15:37:38.478Z,14.42
2023-03-02T15:41:42.084Z,14.48
2023-03-02T15:45:47.014Z,14.61
2023-03-02T15:49:51.004Z,14.38
2023-03-02T15:53:53.611Z,14.29
2023-03-02T15:57:58.105Z,13.88
2023-03-02T16:02:02.287Z,13.76
2023-03-02T16:06:08.649Z,13.48
2023-03-02T16:10:16.364Z,13.48
2023-03-02T16:14:19.575Z,13.13
2023-03-02T16:18:22.618Z,12.74
2023-03-02T16:22:26.617Z,12.49
2023-03-02T16:26:29.347Z,12.22
2023-03-02T16:30:33.461Z,11.71
2023-03-02T16:34:36.136Z,11.23
2023-03-02T16:38:40.973Z,11.12
2023-03-02T16:42:43.733Z,10.79
2023-03-02T16:46:46.615Z,10.50
2023-03-02T16:50:56.046Z,10.16
2023-03-02T16:55:00.003Z,9.87
2023-03-02T16:59:02.673Z,9.61
2023-03-02T17:03:05.465Z,9.46
2023-03-02T17:07:08.987Z,9.26
2023-03-02T17:11:13.043Z,9.07
2023-03-02T17:15:15.785Z,8.94
2023-03-02T17:19:18.428Z,8.79
2023-03-02T17:23:21.465Z,8.67
2023-03-02T17:27:27.176Z,8.56
2023-03-02T17:31:29.860Z,8.37
2023-03-02T17:35:32.588Z,8.22
2023-03-02T17:39:36.230Z,8.08
2023-03-02T17:43:42.204Z,7.98
2023-03-02T17:47:44.918Z,7.93
2023-03-02T17:51:47.566Z,7.88
2023-03-02T17:55:50.236Z,7.81
2023-03-02T17:59:54.545Z,7.72
2023-03-02T18:03:57.476Z,7.64
2023-03-02T18:08:00.225Z,7.64
2023-03-02T18:12:03.437Z,7.61
2023-03-02T18:16:08.833Z,7.47
2023-03-02T18:20:12.639Z,7.27
2023-03-02T18:24:15.936Z,7.17
2023-03-02T18:28:18.996Z,7.12
2023-03-02T18:32:23.225Z,7.06
2023-03-02T18:36:26.100Z,6.99
2023-03-02T18:40:28.805Z,6.98
2023-03-02T18:44:31.580Z,6.92
2023-03-02T18:48:35.820Z,6.85
2023-03-02T18:52:38.473Z,6.68
2023-03-02T18:56:41.132Z,6.57
2023-03-02T19:00:43.831Z,6.47
2023-03-02T19:04:48.318Z,6.33
2023-03-02T19:08:50.943Z,6.22
2023-03-02T19:12:53.605Z,6.09
2023-03-02T19:16:56.899Z,6.06
2023-03-02T19:21:01.282Z,5.97
2023-03-02T19:25:04.069Z,5.87
2023-03-02T19:29:06.683Z,5.74
2023-03-02T19:33:10.194Z,5.70
2023-03-02T19:37:14.488Z,5.68
2023-03-02T19:41:20.159Z,5.60
2023-03-02T19:45:27.289Z,5.57
2023-03-02T19:49:29.936Z,5.45
2023-03-02T19:53:34.050Z,5.27
2023-03-02T19:57:37.054Z,5.23
2023-03-02T20:01:39.714Z,5.23
2023-03-02T20:05:42.339Z,5.14
2023-03-02T20:09:46.466Z,5.07
2023-03-02T20:13:50.714Z,4.97
2023-03-02T20:17:53.567Z,4.84
2023-03-02T20:21:56.379Z,4.77
2023-03-02T20:26:00.377Z,4.73
2023-03-02T20:30:03.586Z,4.63
2023-03-02T20:34:08.860Z,4.56
2023-03-02T20:38:19.391Z,4.50
2023-03-02T20:42:23.417Z,4.43
2023-03-02T20:46:29.340Z,4.35
2023-03-02T20:50:33.645Z,4.24
2023-03-02T20:54:39.429Z,4.20
2023-03-02T20:58:44.372Z,4.14
2023-03-02T21:02:47.792Z,4.11
2023-03-02T21:06:51.745Z,4.04
2023-03-02T21:10:54.448Z,3.96
2023-03-02T21:14:59.006Z,3.92
2023-03-02T21:19:02.053Z,3.86
2023-03-02T21:23:05.327Z,3.79
2023-03-02T21:27:08.174Z,3.80
2023-03-02T21:31:14.688Z,3.79
2023-03-02T21:35:19.992Z,3.76
2023-03-02T21:39:23.970Z,3.68
2023-03-02T21:43:26.754Z,3.65
2023-03-02T21:47:30.838Z,3.58
2023-03-02T21:51:34.122Z,3.59
2023-03-02T21:55:37.980Z,3.54
2023-03-02T21:59:40.710Z,3.42
2023-03-02T22:03:44.889Z,3.38
2023-03-02T22:07:48.200Z,3.34
2023-03-02T22:11:51.657Z,3.27
2023-03-02T22:16:06.943Z,3.25
2023-03-02T22:20:18.824Z,3.17
2023-03-02T22:24:24.160Z,3.08
2023-03-02T22:28:29.098Z,3.02
2023-03-02T22:32:37.024Z,2.93
2023-03-02T22:36:42.698Z,2.91
2023-03-02T22:40:45.542Z,2.84
2023-03-02T22:44:55.989Z,2.83
2023-03-02T22:49:00.874Z,2.79
2023-03-02T22:53:14.800Z,2.77
2023-03-02T22:57:31.524Z,2.72
2023-03-02T23:01:40.230Z,2.57
2023-03-02T23:05:43.729Z,2.46
2023-03-02T23:09:48.363Z,2.30
2023-03-02T23:13:52.223Z,2.27
2023-03-02T23:17:58.417Z,2.24
2023-03-02T23:22:01.299Z,2.18
2023-03-02T23:26:05.483Z,2.15
2023-03-02T23:30:09.799Z,2.08
2023-03-02T23:34:13.597Z,1.90
2023-03-02T23:38:16.352Z,1.76
2023-03-02T23:42:20.311Z,1.78
2023-03-02T23:46:23.251Z,1.89
2023-03-02T23:50:25.943Z,1.92
2023-03-02T23:54:28.545Z,1.90
2023-03-02T23:58:32.565Z,1.90
